createdAt,value
2023-09-23T00:01:48.684Z,15.43
2023-09-23T00:06:51.911Z,15.65
2023-09-23T00:11:54.767Z,15.82
2023-09-23T00:16:56.980Z,16.30
2023-09-23T00:21:59.190Z,16.90
2023-09-23T00:27:02.114Z,17.45
2023-09-23T00:32:05.642Z,18.45
2023-09-23T00:37:09.617Z,21.27
2023-09-23T00:42:13.317Z,26.38
2023-09-23T00:47:16.731Z,28.42
2023-09-23T00:52:19.250Z,30.58
2023-09-23T00:57:22.471Z,28.23
2023-09-23T01:02:24.844Z,23.55
2023-09-23T01:07:28.619Z,24.95
2023-09-23T01:12:31.565Z,26.30
2023-09-23T01:17:33.813Z,26.33
2023-09-23T01:27:40.160Z,31.77
2023-09-23T01:37:57.144Z,34.67
2023-09-23T01:42:59.458Z,33.25
2023-09-23T01:48:02.577Z,32.22
2023-09-23T01:53:05.414Z,33.65
2023-09-23T01:58:08.546Z,34.88
2023-09-23T02:03:11.742Z,36.58
2023-09-23T02:08:14.071Z,37.67
2023-09-23T02:13:16.576Z,39.72
2023-09-23T02:18:18.813Z,40.35
2023-09-23T02:23:22.904Z,43.33
2023-09-23T02:28:25.462Z,42.83
2023-09-23T02:33:27.671Z,47.03
2023-09-23T02:38:30.546Z,49.20
2023-09-23T02:43:32.792Z,52.83
2023-09-23T02:48:35.098Z,61.60
2023-09-23T02:58:41.585Z,44.80
2023-09-23T03:03:44.722Z,43.10
2023-09-23T03:08:55.143Z,42.03
2023-09-23T03:13:57.423Z,42.58
2023-09-23T03:19:16.539Z,41.55
2023-09-23T03:24:19.435Z,42.45
2023-09-23T03:29:23.751Z,41.63
2023-09-23T03:34:27.801Z,42.45
2023-09-23T03:39:29.971Z,39.65
2023-09-23T03:44:32.183Z,41.67
2023-09-23T03:49:34.347Z,44.22
2023-09-23T03:54:37.223Z,49.58
2023-09-23T03:59:40.469Z,51.05
2023-09-23T04:04:43.957Z,47.63
2023-09-23T04:09:46.469Z,44.22
2023-09-23T04:19:50.998Z,37.17
2023-09-23T04:24:53.175Z,39.08
2023-09-23T04:29:55.363Z,38.90
2023-09-23T04:34:57.562Z,42.40
2023-09-23T04:39:59.763Z,46.97
2023-09-23T04:45:02.115Z,44.40
2023-09-23T04:55:08.433Z,43.35
2023-09-23T05:05:13.870Z,42.83
2023-09-23T05:10:16.245Z,39.88
2023-09-23T05:15:18.428Z,34.80
2023-09-23T05:20:21.394Z,32.20
2023-09-23T05:25:25.625Z,31.10
2023-09-23T05:30:27.906Z,30.48
2023-09-23T05:35:30.741Z,31.48
2023-09-23T05:40:37.477Z,30.65
2023-09-23T05:45:39.618Z,31.95
2023-09-23T05:50:41.802Z,38.38
2023-09-23T05:55:45.069Z,43.00
2023-09-23T06:00:48.101Z,31.65
2023-09-23T06:05:50.564Z,29.52
2023-09-23T06:10:53.410Z,30.20
2023-09-23T06:16:03.096Z,30.55
2023-09-23T06:21:07.601Z,25.83
2023-09-23T06:26:11.526Z,28.63
2023-09-23T06:31:13.820Z,29.35
2023-09-23T06:36:16.034Z,27.50
2023-09-23T06:41:18.601Z,25.42
2023-09-23T06:46:21.152Z,26.42
2023-09-23T06:51:23.383Z,29.10
2023-09-23T06:56:26.549Z,27.75
2023-09-23T07:01:28.897Z,23.55
2023-09-23T07:11:33.374Z,21.67
2023-09-23T07:16:35.674Z,19.63
2023-09-23T07:26:40.052Z,16.35
2023-09-23T07:36:44.367Z,17.60
2023-09-23T07:41:46.777Z,17.25
2023-09-23T07:46:49.086Z,17.80
2023-09-23T07:56:53.346Z,18.88
2023-09-23T08:06:57.810Z,15.82
2023-09-23T08:11:59.937Z,17.55
2023-09-23T08:22:04.539Z,15.85
2023-09-23T08:27:07.133Z,16.58
2023-09-23T08:32:09.321Z,16.30
2023-09-23T08:37:11.536Z,15.85
2023-09-23T08:47:19.400Z,15.90
2023-09-23T08:52:22.062Z,14.57
2023-09-23T08:57:24.443Z,15.70
2023-09-23T09:02:27.392Z,17.40
2023-09-23T09:07:38.423Z,17.55
2023-09-23T09:12:40.577Z,16.45
2023-09-23T09:22:48.198Z,15.60
2023-09-23T09:33:00.206Z,16.05
2023-09-23T09:38:17.397Z,14.23
2023-09-23T09:43:21.998Z,14.88
2023-09-23T09:48:27.556Z,15.13
2023-09-23T09:53:30.093Z,17.20
2023-09-23T09:58:41.661Z,17.83
2023-09-23T10:03:44.761Z,16.70
2023-09-23T10:08:49.840Z,14.32
2023-09-23T10:13:51.965Z,14.43
2023-09-23T10:23:58.503Z,14.05
2023-09-23T10:29:04.850Z,14.80
2023-09-23T10:34:10.074Z,14.13
2023-09-23T10:39:16.783Z,15.30
2023-09-23T10:44:28.029Z,14.65
2023-09-23T10:49:30.290Z,14.60
2023-09-23T10:54:32.397Z,14.27
2023-09-23T10:59:35.660Z,15.48
2023-09-23T11:04:38.145Z,14.77
2023-09-23T11:09:40.496Z,15.27
2023-09-23T11:14:44.167Z,18.52
2023-09-23T11:20:02.544Z,18.27
2023-09-23T11:25:10.390Z,17.63
2023-09-23T11:30:13.241Z,14.20
2023-09-23T11:35:15.613Z,13.15
2023-09-23T11:40:18.199Z,12.73
2023-09-23T11:45:21.291Z,12.95
2023-09-23T11:50:25.246Z,13.30
2023-09-23T11:55:28.438Z,13.10
2023-09-23T12:00:30.868Z,12.07
2023-09-23T12:05:33.448Z,12.38
2023-09-23T12:10:35.615Z,11.70
2023-09-23T12:20:39.969Z,10.45
2023-09-23T12:25:43.152Z,11.88
2023-09-23T12:30:45.437Z,12.48
2023-09-23T12:35:48.175Z,12.77
2023-09-23T12:40:50.589Z,12.15
2023-09-23T12:45:52.770Z,13.63
2023-09-23T12:50:54.919Z,12.77
2023-09-23T12:55:57.227Z,12.27
2023-09-23T13:00:59.681Z,11.93
2023-09-23T13:06:02.322Z,12.48
2023-09-23T13:11:04.585Z,12.02
2023-09-23T13:16:08.778Z,11.27
2023-09-23T13:21:11.346Z,11.70
2023-09-23T13:26:13.621Z,11.77
2023-09-23T13:31:15.980Z,11.05
2023-09-23T13:36:18.238Z,12.77
2023-09-23T13:41:20.545Z,12.13
2023-09-23T13:46:22.780Z,12.75
2023-09-23T13:51:25.102Z,12.80
2023-09-23T13:56:27.511Z,13.25
2023-09-23T14:01:30.595Z,13.57
2023-09-23T14:06:32.738Z,12.40
2023-09-23T14:11:34.957Z,12.60
2023-09-23T14:16:37.269Z,13.20
2023-09-23T14:21:39.472Z,12.73
2023-09-23T14:26:41.771Z,14.00
2023-09-23T14:31:43.915Z,12.90
2023-09-23T14:36:46.102Z,14.18
2023-09-23T14:41:48.245Z,14.45
2023-09-23T14:46:50.760Z,14.00
2023-09-23T14:51:52.942Z,15.20
2023-09-23T14:56:55.040Z,18.83
2023-09-23T15:01:57.531Z,16.85
2023-09-23T15:07:00.940Z,15.48
2023-09-23T15:12:03.235Z,13.00
2023-09-23T15:17:05.367Z,11.48
2023-09-23T15:22:07.496Z,11.10
2023-09-23T15:32:12.353Z,11.80
2023-09-23T15:37:14.582Z,12.18
2023-09-23T15:42:16.771Z,11.80
2023-09-23T15:52:22.920Z,11.80
2023-09-23T15:57:25.140Z,11.80
2023-09-23T16:07:29.575Z,12.90
2023-09-23T16:17:33.806Z,12.77
2023-09-23T16:22:37.010Z,11.82
2023-09-23T16:27:41.741Z,12.23
2023-09-23T16:32:43.960Z,12.07
2023-09-23T16:37:46.708Z,12.88
2023-09-23T16:42:48.850Z,12.25
2023-09-23T16:52:54.189Z,12.38
2023-09-23T16:57:56.943Z,12.52
2023-09-23T17:02:59.869Z,12.68
2023-09-23T17:08:02.263Z,14.30
2023-09-23T17:13:04.557Z,13.98
2023-09-23T17:18:07.513Z,13.57
2023-09-23T17:23:11.030Z,13.15
2023-09-23T17:28:14.007Z,13.88
2023-09-23T17:38:18.818Z,13.77
2023-09-23T17:43:21.030Z,14.60
2023-09-23T17:53:25.557Z,15.20
2023-09-23T17:58:27.925Z,15.43
2023-09-23T18:03:33.968Z,14.98
2023-09-23T18:08:36.716Z,12.85
2023-09-23T18:13:41.043Z,13.68
2023-09-23T18:18:47.344Z,13.05
2023-09-23T18:23:49.964Z,13.10
2023-09-23T18:28:52.663Z,13.50
2023-09-23T18:33:56.747Z,13.30
2023-09-23T18:38:59.197Z,14.07
2023-09-23T18:44:02.017Z,14.50
2023-09-23T18:49:04.333Z,14.32
2023-09-23T18:54:06.729Z,13.52
2023-09-23T18:59:09.051Z,13.73
2023-09-23T19:04:11.392Z,14.10
2023-09-23T19:09:14.326Z,14.82
2023-09-23T19:14:17.594Z,14.75
2023-09-23T19:19:19.732Z,17.60
2023-09-23T19:24:22.665Z,17.40
2023-09-23T19:29:25.527Z,18.10
2023-09-23T19:34:28.065Z,16.77
2023-09-23T19:39:32.496Z,16.98
2023-09-23T19:44:35.072Z,16.83
2023-09-23T19:49:38.209Z,16.10
2023-09-23T19:54:41.154Z,16.27
2023-09-23T19:59:43.821Z,16.58
2023-09-23T20:04:47.051Z,16.58
2023-09-23T20:09:49.243Z,17.30
2023-09-23T20:14:51.540Z,17.90
2023-09-23T20:19:53.946Z,18.10
2023-09-23T20:24:56.140Z,19.17
2023-09-23T20:30:07.160Z,19.52
2023-09-23T20:35:12.825Z,19.77
2023-09-23T20:40:16.835Z,19.17
2023-09-23T20:45:19.200Z,20.15
2023-09-23T20:50:22.814Z,19.83
2023-09-23T20:55:25.171Z,20.30
2023-09-23T21:05:29.565Z,20.50
2023-09-23T21:10:32.211Z,20.38
2023-09-23T21:15:34.431Z,21.75
2023-09-23T21:20:38.185Z,21.48
2023-09-23T21:25:40.755Z,22.75
2023-09-23T21:30:42.981Z,24.58
2023-09-23T21:35:45.839Z,23.70
2023-09-23T21:40:48.128Z,24.23
2023-09-23T21:45:51.452Z,24.65
2023-09-23T21:51:02.354Z,22.77
2023-09-23T21:56:04.791Z,23.98
2023-09-23T22:01:08.578Z,23.33
2023-09-23T22:06:13.107Z,26.00
2023-09-23T22:11:15.313Z,25.13
2023-09-23T22:16:17.862Z,24.10
2023-09-23T22:21:20.741Z,22.77
2023-09-23T22:26:24.573Z,23.13
2023-09-23T22:31:27.813Z,23.92
2023-09-23T22:36:30.637Z,24.05
2023-09-23T22:41:32.853Z,23.83
2023-09-23T22:51:38.994Z,22.83
2023-09-23T22:56:41.510Z,23.63
2023-09-23T23:01:44.988Z,23.58
2023-09-23T23:06:48.148Z,23.80
2023-09-23T23:11:50.482Z,23.38
2023-09-23T23:16:52.696Z,23.17
2023-09-23T23:21:54.895Z,21.83
2023-09-23T23:26:57.119Z,22.90
2023-09-23T23:37:03.678Z,23.13
2023-09-23T23:42:06.542Z,24.10
2023-09-23T23:47:09.281Z,23.40
2023-09-23T23:52:11.438Z,24.00
2023-09-23T23:57:17.407Z,24.73
